sensor_id;sensor_type;location;lat;lon;timestamp;pressure;altitude;pressure_sealevel;temperature
20730;BMP280;10526;50.850;12.928;2023-04-25T00:03:09;97101.47;;;6.19
20730;BMP280;10526;50.850;12.928;2023-04-25T00:07:31;97106.78;;;6.12
20730;BMP280;10526;50.850;12.928;2023-04-25T00:11:56;97106.38;;;6.06
20730;BMP280;10526;50.850;12.928;2023-04-25T00:16:18;97107.16;;;6.07
20730;BMP280;10526;50.850;12.928;2023-04-25T00:20:41;97104.91;;;6.05
20730;BMP280;10526;50.850;12.928;2023-04-25T00:25:08;97102.28;;;6.02
20730;BMP280;10526;50.850;12.928;2023-04-25T00:29:30;97103.03;;;5.95
20730;BMP280;10526;50.850;12.928;2023-04-25T00:33:52;97100.03;;;5.93
20730;BMP280;10526;50.850;12.928;2023-04-25T00:38:14;97095.16;;;5.85
20730;BMP280;10526;50.850;12.928;2023-04-25T00:42:37;97091.75;;;5.77
20730;BMP280;10526;50.850;12.928;2023-04-25T00:47:02;97089.50;;;5.72
20730;BMP280;10526;50.850;12.928;2023-04-25T00:51:26;97096.31;;;5.73
20730;BMP280;10526;50.850;12.928;2023-04-25T00:55:48;97092.13;;;5.79
20730;BMP280;10526;50.850;12.928;2023-04-25T01:00:13;97099.28;;;5.78
20730;BMP280;10526;50.850;12.928;2023-04-25T01:04:38;97089.47;;;5.79
20730;BMP280;10526;50.850;12.928;2023-04-25T01:09:02;97083.44;;;5.82
20730;BMP280;10526;50.850;12.928;2023-04-25T01:13:24;97083.44;;;5.78
20730;BMP280;10526;50.850;12.928;2023-04-25T01:17:46;97071.41;;;5.70
20730;BMP280;10526;50.850;12.928;2023-04-25T01:22:08;97080.47;;;5.69
20730;BMP280;10526;50.850;12.928;2023-04-25T01:26:32;97073.28;;;5.73
20730;BMP280;10526;50.850;12.928;2023-04-25T01:30:56;97078.91;;;5.82
20730;BMP280;10526;50.850;12.928;2023-04-25T01:35:19;97063.78;;;5.94
20730;BMP280;10526;50.850;12.928;2023-04-25T01:39:41;97070.94;;;6.04
20730;BMP280;10526;50.850;12.928;2023-04-25T01:44:03;97077.31;;;6.14
20730;BMP280;10526;50.850;12.928;2023-04-25T01:48:26;97073.50;;;6.22
20730;BMP280;10526;50.850;12.928;2023-04-25T01:52:49;97070.84;;;6.29
20730;BMP280;10526;50.850;12.928;2023-04-25T01:57:12;97067.41;;;6.35
20730;BMP280;10526;50.850;12.928;2023-04-25T02:01:36;97062.84;;;6.43
20730;BMP280;10526;50.850;12.928;2023-04-25T02:06:10;97068.13;;;6.47
20730;BMP280;10526;50.850;12.928;2023-04-25T02:10:38;97066.97;;;6.48
20730;BMP280;10526;50.850;12.928;2023-04-25T02:15:23;97063.59;;;6.44
20730;BMP280;10526;50.850;12.928;2023-04-25T02:19:49;97068.53;;;6.38
20730;BMP280;10526;50.850;12.928;2023-04-25T02:24:11;97064.00;;;6.35
20730;BMP280;10526;50.850;12.928;2023-04-25T02:28:34;97065.50;;;6.40
20730;BMP280;10526;50.850;12.928;2023-04-25T02:32:59;97072.66;;;6.46
20730;BMP280;10526;50.850;12.928;2023-04-25T02:37:21;97061.28;;;6.53
20730;BMP280;10526;50.850;12.928;2023-04-25T02:41:43;97051.06;;;6.58
20730;BMP280;10526;50.850;12.928;2023-04-25T02:46:07;97055.91;;;6.67
20730;BMP280;10526;50.850;12.928;2023-04-25T02:50:29;97046.81;;;6.72
20730;BMP280;10526;50.850;12.928;2023-04-25T02:54:51;97042.63;;;6.74
20730;BMP280;10526;50.850;12.928;2023-04-25T02:59:13;97039.94;;;6.81
20730;BMP280;10526;50.850;12.928;2023-04-25T03:03:35;97046.31;;;6.87
20730;BMP280;10526;50.850;12.928;2023-04-25T03:07:57;97042.13;;;6.90
20730;BMP280;10526;50.850;12.928;2023-04-25T03:12:20;97037.19;;;6.96
20730;BMP280;10526;50.850;12.928;2023-04-25T03:16:42;97040.94;;;6.98
20730;BMP280;10526;50.850;12.928;2023-04-25T03:21:05;97043.53;;;7.02
20730;BMP280;10526;50.850;12.928;2023-04-25T03:25:27;97030.69;;;7.07
20730;BMP280;10526;50.850;12.928;2023-04-25T03:29:49;97038.53;;;7.18
20730;BMP280;10526;50.850;12.928;2023-04-25T03:34:11;97032.00;;;7.30
20730;BMP280;10526;50.850;12.928;2023-04-25T03:38:35;97040.19;;;7.43
20730;BMP280;10526;50.850;12.928;2023-04-25T03:42:59;97034.78;;;7.53
20730;BMP280;10526;50.850;12.928;2023-04-25T03:47:21;97031.66;;;7.62
20730;BMP280;10526;50.850;12.928;2023-04-25T03:51:45;97044.84;;;7.69
20730;BMP280;10526;50.850;12.928;2023-04-25T03:56:10;97041.38;;;7.76
20730;BMP280;10526;50.850;12.928;2023-04-25T04:00:34;97043.22;;;7.79
20730;BMP280;10526;50.850;12.928;2023-04-25T04:04:57;97039.03;;;7.81
20730;BMP280;10526;50.850;12.928;2023-04-25T04:09:21;97042.75;;;7.87
20730;BMP280;10526;50.850;12.928;2023-04-25T04:13:43;97045.75;;;7.89
20730;BMP280;10526;50.850;12.928;2023-04-25T04:18:05;97050.25;;;7.92
20730;BMP280;10526;50.850;12.928;2023-04-25T04:22:28;97049.88;;;7.90
20730;BMP280;10526;50.850;12.928;2023-04-25T04:26:54;97059.38;;;7.91
20730;BMP280;10526;50.850;12.928;2023-04-25T04:31:24;97054.81;;;7.92
20730;BMP280;10526;50.850;12.928;2023-04-25T04:35:47;97063.81;;;7.98
20730;BMP280;10526;50.850;12.928;2023-04-25T04:40:11;97062.97;;;8.05
20730;BMP280;10526;50.850;12.928;2023-04-25T04:44:39;97064.41;;;8.13
20730;BMP280;10526;50.850;12.928;2023-04-25T04:49:15;97058.22;;;8.23
20730;BMP280;10526;50.850;12.928;2023-04-25T04:54:00;97067.09;;;8.36
20730;BMP280;10526;50.850;12.928;2023-04-25T04:58:44;97068.75;;;8.57
20730;BMP280;10526;50.850;12.928;2023-04-25T05:03:33;97069.31;;;8.72
20730;BMP280;10526;50.850;12.928;2023-04-25T05:07:55;97073.22;;;8.87
20730;BMP280;10526;50.850;12.928;2023-04-25T05:12:44;97075.97;;;9.31
20730;BMP280;10526;50.850;12.928;2023-04-25T05:17:23;97085.00;;;12.39
20730;BMP280;10526;50.850;12.928;2023-04-25T05:22:09;97079.69;;;14.09
20730;BMP280;10526;50.850;12.928;2023-04-25T05:26:48;97083.91;;;15.05
20730;BMP280;10526;50.850;12.928;2023-04-25T05:31:29;97085.06;;;18.55
20730;BMP280;10526;50.850;12.928;2023-04-25T05:35:56;97089.50;;;20.47
20730;BMP280;10526;50.850;12.928;2023-04-25T05:40:20;97089.19;;;18.97
20730;BMP280;10526;50.850;12.928;2023-04-25T05:44:53;97093.66;;;16.86
20730;BMP280;10526;50.850;12.928;2023-04-25T05:49:43;97094.75;;;16.07
20730;BMP280;10526;50.850;12.928;2023-04-25T05:54:25;97097.34;;;15.84
20730;BMP280;10526;50.850;12.928;2023-04-25T05:58:49;97087.63;;;14.89
20730;BMP280;10526;50.850;12.928;2023-04-25T06:03:12;97093.25;;;14.63
20730;BMP280;10526;50.850;12.928;2023-04-25T06:07:40;97097.16;;;14.90
20730;BMP280;10526;50.850;12.928;2023-04-25T06:12:02;97106.72;;;15.28
20730;BMP280;10526;50.850;12.928;2023-04-25T06:16:24;97093.09;;;14.67
20730;BMP280;10526;50.850;12.928;2023-04-25T06:20:48;97111.81;;;14.40
20730;BMP280;10526;50.850;12.928;2023-04-25T06:25:12;97123.78;;;16.27
20730;BMP280;10526;50.850;12.928;2023-04-25T06:29:34;97118.47;;;18.43
20730;BMP280;10526;50.850;12.928;2023-04-25T06:33:56;97123.88;;;18.63
20730;BMP280;10526;50.850;12.928;2023-04-25T06:38:20;97129.09;;;17.97
20730;BMP280;10526;50.850;12.928;2023-04-25T06:42:45;97116.19;;;16.50
20730;BMP280;10526;50.850;12.928;2023-04-25T06:47:37;97118.16;;;15.01
20730;BMP280;10526;50.850;12.928;2023-04-25T06:51:59;97127.09;;;13.77
20730;BMP280;10526;50.850;12.928;2023-04-25T06:56:22;97118.13;;;13.14
20730;BMP280;10526;50.850;12.928;2023-04-25T07:00:54;97127.63;;;12.94
20730;BMP280;10526;50.850;12.928;2023-04-25T07:05:19;97129.91;;;13.17
20730;BMP280;10526;50.850;12.928;2023-04-25T07:09:41;97140.50;;;13.21
20730;BMP280;10526;50.850;12.928;2023-04-25T07:14:04;97138.53;;;13.77
20730;BMP280;10526;50.850;12.928;2023-04-25T07:18:28;97142.75;;;13.88
20730;BMP280;10526;50.850;12.928;2023-04-25T07:22:50;97132.50;;;14.48
20730;BMP280;10526;50.850;12.928;2023-04-25T07:27:13;97132.47;;;14.98
20730;BMP280;10526;50.850;12.928;2023-04-25T07:31:58;97141.47;;;16.34
20730;BMP280;10526;50.850;12.928;2023-04-25T07:36:20;97150.66;;;16.99
20730;BMP280;10526;50.850;12.928;2023-04-25T07:40:43;97155.00;;;16.06
20730;BMP280;10526;50.850;12.928;2023-04-25T07:45:07;97154.56;;;14.61
20730;BMP280;10526;50.850;12.928;2023-04-25T07:49:30;97148.44;;;13.68
20730;BMP280;10526;50.850;12.928;2023-04-25T07:53:52;97165.59;;;13.58
20730;BMP280;10526;50.850;12.928;2023-04-25T07:58:15;97161.25;;;13.51
20730;BMP280;10526;50.850;12.928;2023-04-25T08:02:40;97162.25;;;13.88
20730;BMP280;10526;50.850;12.928;2023-04-25T08:07:08;97161.19;;;13.86
20730;BMP280;10526;50.850;12.928;2023-04-25T08:11:43;97161.50;;;13.88
20730;BMP280;10526;50.850;12.928;2023-04-25T08:16:08;97176.66;;;17.41
20730;BMP280;10526;50.850;12.928;2023-04-25T08:20:31;97172.72;;;23.41
20730;BMP280;10526;50.850;12.928;2023-04-25T08:24:56;97183.59;;;22.53
20730;BMP280;10526;50.850;12.928;2023-04-25T08:29:18;97174.31;;;18.98
20730;BMP280;10526;50.850;12.928;2023-04-25T08:33:41;97182.81;;;15.76
20730;BMP280;10526;50.850;12.928;2023-04-25T08:38:14;97187.84;;;13.89
20730;BMP280;10526;50.850;12.928;2023-04-25T08:42:38;97189.91;;;12.78
20730;BMP280;10526;50.850;12.928;2023-04-25T08:47:04;97201.41;;;12.24
20730;BMP280;10526;50.850;12.928;2023-04-25T08:51:33;97199.91;;;12.23
20730;BMP280;10526;50.850;12.928;2023-04-25T08:56:00;97195.84;;;12.18
20730;BMP280;10526;50.850;12.928;2023-04-25T09:00:28;97214.81;;;12.07
20730;BMP280;10526;50.850;12.928;2023-04-25T09:04:51;97215.00;;;12.55
20730;BMP280;10526;50.850;12.928;2023-04-25T09:09:17;97222.09;;;13.60
20730;BMP280;10526;50.850;12.928;2023-04-25T09:13:39;97217.13;;;13.36
20730;BMP280;10526;50.850;12.928;2023-04-25T09:18:27;97231.91;;;12.52
20730;BMP280;10526;50.850;12.928;2023-04-25T09:23:04;97233.16;;;11.76
20730;BMP280;10526;50.850;12.928;2023-04-25T09:27:29;97235.00;;;11.63
20730;BMP280;10526;50.850;12.928;2023-04-25T09:32:23;97240.16;;;11.70
20730;BMP280;10526;50.850;12.928;2023-04-25T09:36:49;97242.19;;;11.50
20730;BMP280;10526;50.850;12.928;2023-04-25T09:41:41;97248.44;;;11.27
20730;BMP280;10526;50.850;12.928;2023-04-25T09:46:11;97263.28;;;10.92
20730;BMP280;10526;50.850;12.928;2023-04-25T09:50:38;97258.56;;;10.40
20730;BMP280;10526;50.850;12.928;2023-04-25T09:55:06;97247.41;;;10.29
20730;BMP280;10526;50.850;12.928;2023-04-25T09:59:30;97255.94;;;10.60
20730;BMP280;10526;50.850;12.928;2023-04-25T10:03:56;97259.13;;;11.07
20730;BMP280;10526;50.850;12.928;2023-04-25T10:08:38;97252.25;;;11.59
20730;BMP280;10526;50.850;12.928;2023-04-25T10:13:05;97256.56;;;12.01
20730;BMP280;10526;50.850;12.928;2023-04-25T10:17:28;97265.84;;;12.39
20730;BMP280;10526;50.850;12.928;2023-04-25T10:22:46;97270.84;;;11.78
20730;BMP280;10526;50.850;12.928;2023-04-25T10:27:00;97272.09;;;11.41
20730;BMP280;10526;50.850;12.928;2023-04-25T10:31:23;97281.28;;;10.48
20730;BMP280;10526;50.850;12.928;2023-04-25T10:35:46;97278.41;;;9.96
20730;BMP280;10526;50.850;12.928;2023-04-25T10:40:09;97286.44;;;9.92
20730;BMP280;10526;50.850;12.928;2023-04-25T10:44:32;97294.28;;;10.23
20730;BMP280;10526;50.850;12.928;2023-04-25T10:48:59;97294.22;;;10.86
20730;BMP280;10526;50.850;12.928;2023-04-25T10:53:24;97306.69;;;11.09
20730;BMP280;10526;50.850;12.928;2023-04-25T10:57:49;97305.22;;;10.88
20730;BMP280;10526;50.850;12.928;2023-04-25T11:02:12;97308.91;;;10.54
20730;BMP280;10526;50.850;12.928;2023-04-25T11:07:05;97308.03;;;10.18
20730;BMP280;10526;50.850;12.928;2023-04-25T11:11:29;97308.28;;;10.03
20730;BMP280;10526;50.850;12.928;2023-04-25T11:15:52;97318.06;;;10.10
20730;BMP280;10526;50.850;12.928;2023-04-25T11:20:32;97315.38;;;10.33
20730;BMP280;10526;50.850;12.928;2023-04-25T11:24:55;97315.41;;;10.53
20730;BMP280;10526;50.850;12.928;2023-04-25T11:29:17;97318.31;;;10.39
20730;BMP280;10526;50.850;12.928;2023-04-25T11:33:39;97320.75;;;10.06
20730;BMP280;10526;50.850;12.928;2023-04-25T11:38:04;97333.13;;;9.70
20730;BMP280;10526;50.850;12.928;2023-04-25T11:42:26;97331.72;;;9.62
20730;BMP280;10526;50.850;12.928;2023-04-25T11:47:02;97329.72;;;9.69
20730;BMP280;10526;50.850;12.928;2023-04-25T11:52:13;97340.47;;;9.86
20730;BMP280;10526;50.850;12.928;2023-04-25T11:57:20;97333.50;;;9.95
20730;BMP280;10526;50.850;12.928;2023-04-25T12:01:49;97339.38;;;10.06
20730;BMP280;10526;50.850;12.928;2023-04-25T12:06:17;97342.34;;;10.12
20730;BMP280;10526;50.850;12.928;2023-04-25T12:10:41;97343.22;;;10.05
20730;BMP280;10526;50.850;12.928;2023-04-25T12:15:24;97350.34;;;9.85
20730;BMP280;10526;50.850;12.928;2023-04-25T12:19:47;97359.59;;;9.77
20730;BMP280;10526;50.850;12.928;2023-04-25T12:28:34;97364.69;;;9.37
20730;BMP280;10526;50.850;12.928;2023-04-25T12:32:56;97364.25;;;9.12
20730;BMP280;10526;50.850;12.928;2023-04-25T12:37:19;97371.94;;;9.06
20730;BMP280;10526;50.850;12.928;2023-04-25T12:41:41;97373.56;;;8.93
20730;BMP280;10526;50.850;12.928;2023-04-25T12:46:03;97382.13;;;8.70
20730;BMP280;10526;50.850;12.928;2023-04-25T12:50:25;97388.28;;;8.60
20730;BMP280;10526;50.850;12.928;2023-04-25T12:54:49;97388.28;;;8.60
20730;BMP280;10526;50.850;12.928;2023-04-25T12:59:11;97391.53;;;8.78
20730;BMP280;10526;50.850;12.928;2023-04-25T13:03:35;97388.59;;;9.07
20730;BMP280;10526;50.850;12.928;2023-04-25T13:07:58;97388.72;;;9.61
20730;BMP280;10526;50.850;12.928;2023-04-25T13:12:20;97394.91;;;10.04
20730;BMP280;10526;50.850;12.928;2023-04-25T13:16:43;97397.81;;;10.37
20730;BMP280;10526;50.850;12.928;2023-04-25T13:21:10;97391.91;;;10.49
20730;BMP280;10526;50.850;12.928;2023-04-25T13:25:33;97389.09;;;10.80
20730;BMP280;10526;50.850;12.928;2023-04-25T13:29:55;97401.72;;;10.76
20730;BMP280;10526;50.850;12.928;2023-04-25T13:34:17;97406.63;;;11.17
20730;BMP280;10526;50.850;12.928;2023-04-25T13:38:39;97408.00;;;11.61
20730;BMP280;10526;50.850;12.928;2023-04-25T13:43:05;97402.38;;;11.92
20730;BMP280;10526;50.850;12.928;2023-04-25T13:47:28;97410.19;;;12.31
20730;BMP280;10526;50.850;12.928;2023-04-25T13:51:51;97396.88;;;12.60
20730;BMP280;10526;50.850;12.928;2023-04-25T13:56:14;97396.75;;;12.80
20730;BMP280;10526;50.850;12.928;2023-04-25T14:00:37;97398.63;;;13.09
20730;BMP280;10526;50.850;12.928;2023-04-25T14:05:03;97400.25;;;13.57
20730;BMP280;10526;50.850;12.928;2023-04-25T14:09:25;97392.53;;;13.46
20730;BMP280;10526;50.850;12.928;2023-04-25T14:13:48;97391.91;;;13.17
20730;BMP280;10526;50.850;12.928;2023-04-25T14:18:11;97396.63;;;12.84
20730;BMP280;10526;50.850;12.928;2023-04-25T14:22:33;97399.72;;;12.53
20730;BMP280;10526;50.850;12.928;2023-04-25T14:26:56;97396.97;;;11.95
20730;BMP280;10526;50.850;12.928;2023-04-25T14:31:18;97404.00;;;11.53
20730;BMP280;10526;50.850;12.928;2023-04-25T14:35:40;97401.25;;;10.81
20730;BMP280;10526;50.850;12.928;2023-04-25T14:40:04;97417.63;;;10.32
20730;BMP280;10526;50.850;12.928;2023-04-25T14:44:26;97438.13;;;9.85
20730;BMP280;10526;50.850;12.928;2023-04-25T14:48:49;97439.19;;;9.30
20730;BMP280;10526;50.850;12.928;2023-04-25T14:53:12;97452.47;;;8.92
20730;BMP280;10526;50.850;12.928;2023-04-25T14:57:35;97462.13;;;8.76
20730;BMP280;10526;50.850;12.928;2023-04-25T15:01:57;97457.13;;;8.81
20730;BMP280;10526;50.850;12.928;2023-04-25T15:06:20;97457.78;;;8.92
20730;BMP280;10526;50.850;12.928;2023-04-25T15:10:42;97453.69;;;9.22
20730;BMP280;10526;50.850;12.928;2023-04-25T15:15:06;97460.25;;;9.44
20730;BMP280;10526;50.850;12.928;2023-04-25T15:19:38;97466.06;;;9.70
20730;BMP280;10526;50.850;12.928;2023-04-25T15:24:00;97466.16;;;9.90
20730;BMP280;10526;50.850;12.928;2023-04-25T15:28:23;97472.19;;;10.21
20730;BMP280;10526;50.850;12.928;2023-04-25T15:32:45;97462.47;;;10.37
20730;BMP280;10526;50.850;12.928;2023-04-25T15:37:08;97479.84;;;10.42
20730;BMP280;10526;50.850;12.928;2023-04-25T15:41:30;97473.09;;;10.37
20730;BMP280;10526;50.850;12.928;2023-04-25T15:45:52;97472.69;;;10.39
20730;BMP280;10526;50.850;12.928;2023-04-25T15:50:15;97479.34;;;10.24
20730;BMP280;10526;50.850;12.928;2023-04-25T15:54:37;97478.69;;;10.20
20730;BMP280;10526;50.850;12.928;2023-04-25T15:58:59;97472.38;;;10.33
20730;BMP280;10526;50.850;12.928;2023-04-25T16:03:21;97475.69;;;10.41
20730;BMP280;10526;50.850;12.928;2023-04-25T16:07:45;97471.22;;;10.34
20730;BMP280;10526;50.850;12.928;2023-04-25T16:12:09;97479.28;;;10.31
20730;BMP280;10526;50.850;12.928;2023-04-25T16:16:32;97484.28;;;10.25
20730;BMP280;10526;50.850;12.928;2023-04-25T16:20:55;97484.25;;;10.29
20730;BMP280;10526;50.850;12.928;2023-04-25T16:25:17;97482.03;;;10.24
20730;BMP280;10526;50.850;12.928;2023-04-25T16:29:40;97481.81;;;9.84
20730;BMP280;10526;50.850;12.928;2023-04-25T16:34:05;97480.72;;;9.47
20730;BMP280;10526;50.850;12.928;2023-04-25T16:38:28;97492.41;;;9.19
20730;BMP280;10526;50.850;12.928;2023-04-25T16:42:50;97487.34;;;8.94
20730;BMP280;10526;50.850;12.928;2023-04-25T16:47:12;97494.34;;;8.74
20730;BMP280;10526;50.850;12.928;2023-04-25T16:51:40;97503.94;;;8.61
20730;BMP280;10526;50.850;12.928;2023-04-25T16:56:05;97504.66;;;8.65
20730;BMP280;10526;50.850;12.928;2023-04-25T17:00:28;97513.69;;;8.71
20730;BMP280;10526;50.850;12.928;2023-04-25T17:04:50;97507.25;;;8.72
20730;BMP280;10526;50.850;12.928;2023-04-25T17:09:13;97515.53;;;8.81
20730;BMP280;10526;50.850;12.928;2023-04-25T17:13:36;97512.47;;;8.83
20730;BMP280;10526;50.850;12.928;2023-04-25T17:18:10;97515.53;;;8.81
20730;BMP280;10526;50.850;12.928;2023-04-25T17:22:33;97524.25;;;8.78
20730;BMP280;10526;50.850;12.928;2023-04-25T17:26:58;97524.75;;;8.66
20730;BMP280;10526;50.850;12.928;2023-04-25T17:31:20;97532.03;;;8.55
20730;BMP280;10526;50.850;12.928;2023-04-25T17:35:44;97533.19;;;8.46
20730;BMP280;10526;50.850;12.928;2023-04-25T17:40:08;97537.84;;;8.35
20730;BMP280;10526;50.850;12.928;2023-04-25T17:44:33;97536.75;;;8.22
20730;BMP280;10526;50.850;12.928;2023-04-25T17:48:56;97542.47;;;8.13
20730;BMP280;10526;50.850;12.928;2023-04-25T17:53:19;97542.88;;;8.05
20730;BMP280;10526;50.850;12.928;2023-04-25T17:57:41;97541.41;;;7.93
20730;BMP280;10526;50.850;12.928;2023-04-25T18:02:03;97549.38;;;7.89
20730;BMP280;10526;50.850;12.928;2023-04-25T18:06:26;97560.75;;;7.86
20730;BMP280;10526;50.850;12.928;2023-04-25T18:10:48;97568.72;;;7.79
20730;BMP280;10526;50.850;12.928;2023-04-25T18:15:11;97571.00;;;7.74
20730;BMP280;10526;50.850;12.928;2023-04-25T18:19:34;97569.13;;;7.67
20730;BMP280;10526;50.850;12.928;2023-04-25T18:23:56;97574.44;;;7.60
20730;BMP280;10526;50.850;12.928;2023-04-25T18:28:18;97574.47;;;7.53
20730;BMP280;10526;50.850;12.928;2023-04-25T18:32:42;97584.28;;;7.49
20730;BMP280;10526;50.850;12.928;2023-04-25T18:37:05;97583.19;;;7.43
20730;BMP280;10526;50.850;12.928;2023-04-25T18:41:35;97594.16;;;7.27
20730;BMP280;10526;50.850;12.928;2023-04-25T18:46:17;97609.28;;;7.05
20730;BMP280;10526;50.850;12.928;2023-04-25T18:50:43;97613.03;;;6.90
20730;BMP280;10526;50.850;12.928;2023-04-25T18:55:05;97619.06;;;6.79
20730;BMP280;10526;50.850;12.928;2023-04-25T18:59:28;97624.34;;;6.72
20730;BMP280;10526;50.850;12.928;2023-04-25T19:03:51;97623.91;;;6.63
20730;BMP280;10526;50.850;12.928;2023-04-25T19:08:19;97628.03;;;6.43
20730;BMP280;10526;50.850;12.928;2023-04-25T19:12:41;97630.19;;;6.19
20730;BMP280;10526;50.850;12.928;2023-04-25T19:17:03;97632.34;;;5.99
20730;BMP280;10526;50.850;12.928;2023-04-25T19:21:25;97634.44;;;5.79
20730;BMP280;10526;50.850;12.928;2023-04-25T19:25:48;97640.34;;;5.62
20730;BMP280;10526;50.850;12.928;2023-04-25T19:30:10;97634.19;;;5.44
20730;BMP280;10526;50.850;12.928;2023-04-25T19:34:32;97637.78;;;5.25
20730;BMP280;10526;50.850;12.928;2023-04-25T19:38:56;97635.75;;;5.08
20730;BMP280;10526;50.850;12.928;2023-04-25T19:43:23;97637.88;;;4.95
20730;BMP280;10526;50.850;12.928;2023-04-25T19:47:46;97645.69;;;4.84
20730;BMP280;10526;50.850;12.928;2023-04-25T19:52:09;97645.59;;;4.77
20730;BMP280;10526;50.850;12.928;2023-04-25T19:56:35;97652.25;;;4.67
20730;BMP280;10526;50.850;12.928;2023-04-25T20:00:57;97658.97;;;4.61
20730;BMP280;10526;50.850;12.928;2023-04-25T20:05:19;97660.47;;;4.62
20730;BMP280;10526;50.850;12.928;2023-04-25T20:09:41;97655.88;;;4.56
20730;BMP280;10526;50.850;12.928;2023-04-25T20:14:03;97657.31;;;4.49
20730;BMP280;10526;50.850;12.928;2023-04-25T20:18:26;97657.22;;;4.42
20730;BMP280;10526;50.850;12.928;2023-04-25T20:22:48;97665.19;;;4.46
20730;BMP280;10526;50.850;12.928;2023-04-25T20:27:13;97664.09;;;4.50
20730;BMP280;10526;50.850;12.928;2023-04-25T20:31:35;97661.19;;;4.59
20730;BMP280;10526;50.850;12.928;2023-04-25T20:35:58;97663.50;;;4.64
20730;BMP280;10526;50.850;12.928;2023-04-25T20:40:20;97652.19;;;4.64
20730;BMP280;10526;50.850;12.928;2023-04-25T20:44:42;97671.38;;;4.57
20730;BMP280;10526;50.850;12.928;2023-04-25T20:49:05;97667.50;;;4.51
20730;BMP280;10526;50.850;12.928;2023-04-25T20:53:27;97665.88;;;4.43
20730;BMP280;10526;50.850;12.928;2023-04-25T20:57:49;97667.31;;;4.37
20730;BMP280;10526;50.850;12.928;2023-04-25T21:02:12;97672.53;;;4.33
20730;BMP280;10526;50.850;12.928;2023-04-25T21:06:36;97684.13;;;4.55
20730;BMP280;10526;50.850;12.928;2023-04-25T21:10:58;97695.13;;;4.91
20730;BMP280;10526;50.850;12.928;2023-04-25T21:15:20;97694.31;;;5.20
20730;BMP280;10526;50.850;12.928;2023-04-25T21:19:42;97691.44;;;5.36
20730;BMP280;10526;50.850;12.928;2023-04-25T21:24:05;97702.47;;;5.45
20730;BMP280;10526;50.850;12.928;2023-04-25T21:28:27;97705.53;;;5.51
20730;BMP280;10526;50.850;12.928;2023-04-25T21:32:49;97700.66;;;5.53
20730;BMP280;10526;50.850;12.928;2023-04-25T21:37:12;97712.03;;;5.57
20730;BMP280;10526;50.850;12.928;2023-04-25T21:41:34;97706.34;;;5.55
20730;BMP280;10526;50.850;12.928;2023-04-25T21:45:58;97708.22;;;5.54
20730;BMP280;10526;50.850;12.928;2023-04-25T21:50:40;97702.56;;;5.56
20730;BMP280;10526;50.850;12.928;2023-04-25T21:55:03;97700.69;;;5.56
20730;BMP280;10526;50.850;12.928;2023-04-25T21:59:25;97708.63;;;5.56
20730;BMP280;10526;50.850;12.928;2023-04-25T22:03:47;97710.50;;;5.56
20730;BMP280;10526;50.850;12.928;2023-04-25T22:08:09;97716.50;;;5.53
20730;BMP280;10526;50.850;12.928;2023-04-25T22:12:32;97720.22;;;5.48
20730;BMP280;10526;50.850;12.928;2023-04-25T22:16:54;97713.38;;;5.40
20730;BMP280;10526;50.850;12.928;2023-04-25T22:21:17;97720.44;;;5.29
20730;BMP280;10526;50.850;12.928;2023-04-25T22:25:39;97727.38;;;5.11
20730;BMP280;10526;50.850;12.928;2023-04-25T22:30:02;97724.09;;;4.87
20730;BMP280;10526;50.850;12.928;2023-04-25T22:34:25;97733.69;;;4.72
20730;BMP280;10526;50.850;12.928;2023-04-25T22:38:47;97740.09;;;4.71
20730;BMP280;10526;50.850;12.928;2023-04-25T22:43:09;97732.63;;;4.77
20730;BMP280;10526;50.850;12.928;2023-04-25T22:47:31;97741.41;;;4.85
20730;BMP280;10526;50.850;12.928;2023-04-25T22:51:54;97755.78;;;4.91
20730;BMP280;10526;50.850;12.928;2023-04-25T22:56:17;97766.84;;;5.00
20730;BMP280;10526;50.850;12.928;2023-04-25T23:00:39;97773.38;;;5.10
20730;BMP280;10526;50.850;12.928;2023-04-25T23:05:02;97774.56;;;5.16
20730;BMP280;10526;50.850;12.928;2023-04-25T23:09:25;97783.69;;;5.22
20730;BMP280;10526;50.850;12.928;2023-04-25T23:13:48;97778.03;;;5.20
20730;BMP280;10526;50.850;12.928;2023-04-25T23:18:10;97782.81;;;5.11
20730;BMP280;10526;50.850;12.928;2023-04-25T23:22:32;97776.59;;;4.96
20730;BMP280;10526;50.850;12.928;2023-04-25T23:26:55;97781.38;;;4.87
20730;BMP280;10526;50.850;12.928;2023-04-25T23:31:17;97774.09;;;4.80
20730;BMP280;10526;50.850;12.928;2023-04-25T23:35:39;97777.53;;;4.81
20730;BMP280;10526;50.850;12.928;2023-04-25T23:40:03;97786.13;;;4.77
20730;BMP280;10526;50.850;12.928;2023-04-25T23:44:33;97772.91;;;4.74
20730;BMP280;10526;50.850;12.928;2023-04-25T23:48:55;97779.59;;;4.68
20730;BMP280;10526;50.850;12.928;2023-04-25T23:53:17;97776.16;;;4.64
20730;BMP280;10526;50.850;12.928;2023-04-25T23:57:39;97779.09;;;4.59
